createdAt,value
2022-11-02T00:00:45.756Z,13.2
2022-11-02T00:01:49.901Z,14.2
2022-11-02T00:02:53.902Z,15.2
2022-11-02T00:03:57.953Z,15.2
2022-11-02T00:05:02.135Z,13.7
2022-11-02T00:06:06.725Z,14.5
2022-11-02T00:07:11.241Z,15.4
2022-11-02T00:08:15.314Z,15.5
2022-11-02T00:09:19.374Z,15.1
2022-11-02T00:10:23.586Z,14.8
2022-11-02T00:11:28.066Z,13.7
2022-11-02T00:12:32.049Z,13.6
2022-11-02T00:13:36.182Z,15.2
2022-11-02T00:14:40.341Z,15
2022-11-02T00:15:44.866Z,15.7
2022-11-02T00:16:49.446Z,15.3
2022-11-02T00:17:53.792Z,14
2022-11-02T00:19:00.667Z,14.8
2022-11-02T00:20:05.280Z,13.9
2022-11-02T00:21:09.857Z,14.5
2022-11-02T00:22:14.318Z,15.3
2022-11-02T00:23:18.367Z,14.3
2022-11-02T00:24:22.455Z,14.8
2022-11-02T00:25:26.614Z,15.1
2022-11-02T00:26:30.690Z,15.4
2022-11-02T00:27:35.092Z,14.6
2022-11-02T00:28:39.301Z,13.9
2022-11-02T00:29:43.310Z,14.7
2022-11-02T00:30:47.547Z,15.4
2022-11-02T00:31:52.037Z,15.8
2022-11-02T00:32:56.094Z,14
2022-11-02T00:34:00.197Z,14.5
2022-11-02T00:35:04.750Z,15.5
2022-11-02T00:36:09.430Z,14.8
2022-11-02T00:37:13.945Z,15.6
2022-11-02T00:38:18.061Z,15.2
2022-11-02T00:39:22.656Z,14.3
2022-11-02T00:40:26.733Z,13.2
2022-11-02T00:41:31.330Z,15.1
2022-11-02T00:42:35.725Z,13.6
2022-11-02T00:43:39.881Z,14
2022-11-02T00:44:44.374Z,14.4
2022-11-02T00:45:48.517Z,15.5
2022-11-02T00:46:53.210Z,15.8
2022-11-02T00:47:57.759Z,14.1
2022-11-02T00:49:02.210Z,15.1
2022-11-02T00:50:06.678Z,15
2022-11-02T00:51:10.925Z,14.9
2022-11-02T00:52:15.445Z,15.3
2022-11-02T00:53:19.575Z,14.4
2022-11-02T00:54:25.850Z,14.9
2022-11-02T00:55:28.190Z,16.2
2022-11-02T00:56:32.243Z,15
2022-11-02T00:57:36.291Z,16.1
2022-11-02T00:58:40.333Z,15.8
2022-11-02T00:59:44.461Z,16.8
2022-11-02T01:00:48.953Z,15.5
2022-11-02T01:01:53.195Z,14.8
2022-11-02T01:02:57.223Z,16.4
2022-11-02T01:04:01.753Z,15
2022-11-02T01:05:05.921Z,15.8
2022-11-02T01:06:10.830Z,16.3
2022-11-02T01:07:15.509Z,15.8
2022-11-02T01:08:20.073Z,16.2
2022-11-02T01:09:24.635Z,15.4
2022-11-02T01:10:29.093Z,16
2022-11-02T01:11:33.217Z,15.6
2022-11-02T01:12:37.796Z,15.5
2022-11-02T01:13:42.289Z,15.5
2022-11-02T01:14:46.414Z,15.8
2022-11-02T01:15:51.082Z,14.4
2022-11-02T01:16:55.485Z,16.3
2022-11-02T01:17:59.641Z,15.3
2022-11-02T01:19:04.269Z,14.8
2022-11-02T01:20:08.761Z,14.8
2022-11-02T01:21:13.329Z,16.6
2022-11-02T01:22:17.489Z,16.7
2022-11-02T01:23:21.614Z,16.1
2022-11-02T01:24:26.131Z,17.6
2022-11-02T01:25:30.784Z,16.5
2022-11-02T01:26:35.338Z,16.4
2022-11-02T01:27:39.902Z,15.9
2022-11-02T01:28:44.449Z,16.8
2022-11-02T01:29:48.497Z,16.5
2022-11-02T01:30:52.650Z,17.7
2022-11-02T01:31:57.229Z,17.9
2022-11-02T01:33:01.276Z,18.2
2022-11-02T01:34:05.837Z,17
2022-11-02T01:35:09.905Z,18.3
2022-11-02T01:36:13.981Z,16.8
2022-11-02T01:37:18.117Z,17.4
2022-11-02T01:38:22.621Z,16.9
2022-11-02T01:39:26.849Z,18.8
2022-11-02T01:40:31.277Z,19.2
2022-11-02T01:41:35.877Z,17.7
2022-11-02T01:42:40.533Z,17.9
2022-11-02T01:43:45.049Z,17.7
2022-11-02T01:44:49.093Z,17.6
2022-11-02T01:45:53.287Z,17.1
2022-11-02T01:47:00.267Z,18.8
2022-11-02T01:48:04.510Z,18.6
2022-11-02T01:49:08.565Z,20.4
2022-11-02T01:50:13.051Z,19.8
2022-11-02T01:51:20.129Z,20.6
2022-11-02T01:52:32.296Z,19.3
2022-11-02T01:53:36.407Z,18.3
2022-11-02T01:54:40.489Z,23
2022-11-02T01:55:50.177Z,20.2
2022-11-02T01:56:54.705Z,20.4
2022-11-02T01:57:58.780Z,19
2022-11-02T01:59:02.953Z,19.1
2022-11-02T02:00:07.517Z,20.3
2022-11-02T02:01:12.129Z,20.1
2022-11-02T02:02:16.821Z,20.3
2022-11-02T02:03:20.748Z,20.5
2022-11-02T02:04:24.805Z,21.4
2022-11-02T02:05:28.930Z,20
2022-11-02T02:06:33.006Z,20
2022-11-02T02:07:37.441Z,20
2022-11-02T02:08:41.565Z,20
2022-11-02T02:09:47.230Z,20
2022-11-02T02:10:49.733Z,20
2022-11-02T02:11:56.826Z,20
2022-11-02T02:13:00.972Z,20
2022-11-02T02:14:04.953Z,20
2022-11-02T02:15:08.990Z,20
2022-11-02T02:16:13.137Z,20
2022-11-02T02:17:20.149Z,20
2022-11-02T02:18:27.467Z,20
2022-11-02T02:19:34.981Z,20
2022-11-02T02:20:44.493Z,20
2022-11-02T02:21:48.760Z,20
2022-11-02T02:23:03.349Z,20
2022-11-02T02:24:18.141Z,20
2022-11-02T02:25:28.429Z,20
2022-11-02T02:26:37.981Z,20
2022-11-02T02:27:47.797Z,20
2022-11-02T02:29:02.589Z,20
2022-11-02T02:30:06.969Z,20
2022-11-02T02:31:11.193Z,20
2022-11-02T02:32:18.189Z,20
2022-11-02T02:33:25.825Z,20
2022-11-02T02:34:29.922Z,20
2022-11-02T02:35:39.409Z,20
2022-11-02T02:36:49.581Z,20
2022-11-02T02:37:53.740Z,20
2022-11-02T02:38:58.173Z,20
2022-11-02T02:40:07.385Z,20
2022-11-02T02:41:14.685Z,20
2022-11-02T02:42:29.385Z,20
2022-11-02T02:43:41.505Z,20
2022-11-02T02:44:48.069Z,20
2022-11-02T02:46:00.230Z,20
2022-11-02T02:47:07.341Z,20
2022-11-02T02:48:11.593Z,20
2022-11-02T02:49:16.043Z,20
2022-11-02T02:50:20.533Z,20
2022-11-02T02:51:27.306Z,20
2022-11-02T02:52:31.445Z,20
2022-11-02T02:53:36.057Z,20
2022-11-02T02:54:40.593Z,20
2022-11-02T02:55:45.036Z,20
2022-11-02T02:56:49.068Z,20
2022-11-02T02:57:53.112Z,20
2022-11-02T02:58:57.261Z,20
2022-11-02T03:00:01.584Z,20
2022-11-02T03:01:05.805Z,20
2022-11-02T03:02:10.062Z,20
2022-11-02T03:03:13.973Z,20
2022-11-02T03:04:18.149Z,20
2022-11-02T03:05:22.089Z,20
2022-11-02T03:06:26.161Z,20
2022-11-02T03:07:34.285Z,20
2022-11-02T03:08:37.922Z,20
2022-11-02T03:09:41.958Z,20
2022-11-02T03:10:51.213Z,20
2022-11-02T03:12:03.522Z,20
2022-11-02T03:13:15.480Z,20
2022-11-02T03:14:29.760Z,20
2022-11-02T03:15:42.009Z,20
2022-11-02T03:16:51.154Z,20
2022-11-02T03:18:05.584Z,20
2022-11-02T03:19:20.144Z,20
2022-11-02T03:20:29.723Z,20
2022-11-02T03:21:44.493Z,20
2022-11-02T03:22:48.557Z,20
2022-11-02T03:23:53.209Z,20
2022-11-02T03:25:02.741Z,20
2022-11-02T03:26:15.037Z,20
2022-11-02T03:27:22.282Z,20
2022-11-02T03:28:31.865Z,20
2022-11-02T03:29:46.533Z,20
2022-11-02T03:30:58.789Z,20
2022-11-02T03:32:07.945Z,20
2022-11-02T03:33:22.868Z,20.1
2022-11-02T03:34:26.873Z,20.8
2022-11-02T03:35:39.584Z,19.4
2022-11-02T03:36:43.694Z,21.1
2022-11-02T03:37:48.702Z,22.3
2022-11-02T03:39:00.893Z,19.5
2022-11-02T03:40:05.033Z,19.7
2022-11-02T03:41:12.132Z,21.9
2022-11-02T03:42:16.221Z,19.7
2022-11-02T03:43:23.407Z,18.6
2022-11-02T03:44:28.001Z,20.4
2022-11-02T03:45:32.010Z,19.1
2022-11-02T03:46:36.136Z,20.7
2022-11-02T03:47:40.645Z,21.2
2022-11-02T03:48:44.732Z,21.6
2022-11-02T03:49:48.864Z,20.6
2022-11-02T03:50:52.850Z,19.9
2022-11-02T03:51:56.949Z,19.8
2022-11-02T03:53:01.205Z,22.6
2022-11-02T03:54:08.521Z,20.6
2022-11-02T03:55:12.945Z,20.5
2022-11-02T03:56:20.008Z,21.6
2022-11-02T03:57:32.705Z,20.4
2022-11-02T03:58:39.661Z,20.6
2022-11-02T03:59:43.882Z,19.7
2022-11-02T04:00:48.343Z,20.5
2022-11-02T04:01:58.204Z,20.5
2022-11-02T04:03:02.589Z,22.3
2022-11-02T04:04:09.662Z,20.6
2022-11-02T04:05:13.785Z,21.7
2022-11-02T04:06:18.319Z,21.3
2022-11-02T04:07:22.817Z,22.8
2022-11-02T04:08:26.929Z,22.6
2022-11-02T04:09:36.518Z,22.7
2022-11-02T04:10:40.609Z,20.7
2022-11-02T04:11:49.697Z,21.7
2022-11-02T04:12:58.946Z,22.1
2022-11-02T04:14:08.133Z,21.6
2022-11-02T04:15:17.857Z,21.8
2022-11-02T04:16:26.589Z,22.3
2022-11-02T04:17:26.618Z,20.5
2022-11-02T04:18:36.053Z,22.3
2022-11-02T04:19:47.026Z,21.3
2022-11-02T04:20:49.465Z,22.7
2022-11-02T04:21:53.780Z,22.1
2022-11-02T04:23:03.028Z,21.6
2022-11-02T04:24:12.857Z,21.6
2022-11-02T04:25:22.299Z,22.9
2022-11-02T04:26:26.550Z,21.6
2022-11-02T04:27:31.065Z,22.2
2022-11-02T04:28:35.132Z,21.9
2022-11-02T04:29:39.280Z,20.9
2022-11-02T04:30:43.737Z,20.7
2022-11-02T04:31:47.865Z,21.5
2022-11-02T04:32:52.465Z,22.4
2022-11-02T04:34:02.061Z,23.2
2022-11-02T04:35:06.177Z,23
2022-11-02T04:36:10.246Z,22.6
2022-11-02T04:37:14.834Z,23
2022-11-02T04:38:24.341Z,24.2
2022-11-02T04:39:33.680Z,24.2
2022-11-02T04:40:38.149Z,24.1
2022-11-02T04:41:42.260Z,23.8
2022-11-02T04:42:46.852Z,23.4
2022-11-02T04:43:50.831Z,25.2
2022-11-02T04:44:55.054Z,25.4
2022-11-02T04:45:59.101Z,26
2022-11-02T04:47:03.666Z,25.5
2022-11-02T04:48:08.314Z,26
2022-11-02T04:49:12.287Z,25.3
2022-11-02T04:50:17.056Z,25.8
2022-11-02T04:51:21.393Z,27.1
2022-11-02T04:52:25.400Z,25.9
2022-11-02T04:53:29.516Z,25.8
2022-11-02T04:54:33.608Z,24.8
2022-11-02T04:55:37.748Z,25.2
2022-11-02T04:56:42.225Z,25.6
2022-11-02T04:57:46.911Z,25.9
2022-11-02T04:58:51.577Z,25
2022-11-02T04:59:55.990Z,24.8
2022-11-02T05:01:00.014Z,25.9
2022-11-02T05:02:12.574Z,27.9
2022-11-02T05:03:16.860Z,26.1
2022-11-02T05:04:21.028Z,25.2
2022-11-02T05:05:25.576Z,24
2022-11-02T05:06:30.065Z,23.5
2022-11-02T05:07:34.246Z,23.5
2022-11-02T05:08:38.756Z,22.4
2022-11-02T05:09:42.911Z,21.9
2022-11-02T05:10:47.356Z,22.7
2022-11-02T05:11:51.524Z,23.3
2022-11-02T05:12:56.033Z,23.2
2022-11-02T05:14:00.189Z,21.8
2022-11-02T05:15:04.296Z,22.9
2022-11-02T05:16:08.809Z,22.6
2022-11-02T05:17:12.909Z,22.6
2022-11-02T05:18:19.011Z,22.3
2022-11-02T05:19:22.111Z,22.6
2022-11-02T05:20:26.801Z,22.4
2022-11-02T05:21:31.365Z,23.5
2022-11-02T05:22:36.016Z,20.5
2022-11-02T05:23:43.916Z,19.9
2022-11-02T05:24:48.534Z,20.4
2022-11-02T05:25:53.026Z,21.3
2022-11-02T05:27:00.180Z,23.1
2022-11-02T05:28:04.352Z,23.2
2022-11-02T05:29:08.908Z,22.2
2022-11-02T05:30:13.588Z,21.4
2022-11-02T05:31:18.044Z,21.5
2022-11-02T05:32:23.048Z,21.2
2022-11-02T05:33:30.472Z,21.3
2022-11-02T05:34:31.368Z,21.5
2022-11-02T05:35:35.749Z,19.4
2022-11-02T05:36:39.884Z,21.4
2022-11-02T05:37:44.564Z,22.3
2022-11-02T05:38:49.148Z,21.9
2022-11-02T05:39:53.700Z,22.9
2022-11-02T05:40:58.261Z,20.8
2022-11-02T05:42:02.732Z,21.7
2022-11-02T05:43:07.748Z,21.3
2022-11-02T05:44:11.910Z,21.1
2022-11-02T05:45:19.200Z,21.3
2022-11-02T05:46:20.560Z,20.1
2022-11-02T05:47:25.264Z,21.4
2022-11-02T05:48:29.804Z,20.4
2022-11-02T05:49:34.607Z,19.7
2022-11-02T05:50:38.825Z,19.9
2022-11-02T05:51:42.845Z,19
2022-11-02T05:52:46.964Z,18.7
2022-11-02T05:53:51.141Z,19.6
2022-11-02T05:54:55.661Z,20.1
2022-11-02T05:56:00.265Z,18.8
2022-11-02T05:57:04.956Z,19.9
2022-11-02T05:58:09.394Z,21.7
2022-11-02T05:59:13.506Z,19.5
2022-11-02T06:00:17.998Z,20.3
2022-11-02T06:01:22.199Z,19.7
2022-11-02T06:02:26.366Z,21.1
2022-11-02T06:03:30.916Z,20.6
2022-11-02T06:04:35.805Z,19.7
2022-11-02T06:05:40.296Z,21
2022-11-02T06:06:44.424Z,21.6
2022-11-02T06:07:48.536Z,21.9
2022-11-02T06:08:52.645Z,20.4
2022-11-02T06:09:57.333Z,20.5
2022-11-02T06:11:01.825Z,19.8
2022-11-02T06:12:09.448Z,20.7
2022-11-02T06:13:13.997Z,20.7
2022-11-02T06:14:18.061Z,21.3
2022-11-02T06:15:22.273Z,23.3
2022-11-02T06:16:26.793Z,21.8
2022-11-02T06:17:31.333Z,24
2022-11-02T06:18:40.969Z,20.5
2022-11-02T06:19:45.012Z,20
2022-11-02T06:20:49.259Z,20.6
2022-11-02T06:21:53.625Z,21.2
2022-11-02T06:22:57.760Z,19.3
2022-11-02T06:24:02.571Z,21.2
2022-11-02T06:25:07.065Z,20.2
2022-11-02T06:26:11.653Z,19.7
2022-11-02T06:27:16.096Z,21.8
2022-11-02T06:28:20.193Z,23.9
2022-11-02T06:29:24.652Z,23.1
2022-11-02T06:30:28.925Z,21.3
2022-11-02T06:31:33.487Z,20.5
2022-11-02T06:32:37.936Z,22.4
2022-11-02T06:33:42.368Z,22.5
2022-11-02T06:34:46.765Z,21.4
2022-11-02T06:35:51.537Z,20.5
2022-11-02T06:36:55.839Z,22.8
2022-11-02T06:38:00.044Z,21
2022-11-02T06:39:04.596Z,20.2
2022-11-02T06:40:09.148Z,19.5
2022-11-02T06:41:13.592Z,20.9
2022-11-02T06:42:17.660Z,18.6
2022-11-02T06:43:22.155Z,18.7
2022-11-02T06:44:26.412Z,20.3
2022-11-02T06:45:30.929Z,19.7
2022-11-02T06:46:35.100Z,19.6
2022-11-02T06:47:39.695Z,20.1
2022-11-02T06:48:44.189Z,20.5
2022-11-02T06:49:48.819Z,20.8
2022-11-02T06:50:53.472Z,20.2
2022-11-02T06:51:57.961Z,22.1
2022-11-02T06:53:02.883Z,19.4
2022-11-02T06:54:08.715Z,20.1
2022-11-02T06:55:11.017Z,20.9
2022-11-02T06:56:15.238Z,23.3
2022-11-02T06:57:19.732Z,21.9
2022-11-02T06:58:23.932Z,20.9
2022-11-02T06:59:28.600Z,20.8
2022-11-02T07:00:33.274Z,21.7
2022-11-02T07:01:37.801Z,23.7
2022-11-02T07:02:41.900Z,23.7
2022-11-02T07:03:46.219Z,22
2022-11-02T07:04:50.328Z,20.4
2022-11-02T07:05:54.901Z,22.4
2022-11-02T07:06:58.980Z,23.9
2022-11-02T07:08:03.200Z,24.2
2022-11-02T07:09:07.648Z,22.2
2022-11-02T07:10:12.144Z,23.4
2022-11-02T07:11:16.793Z,23.4
2022-11-02T07:12:23.128Z,21.4
2022-11-02T07:13:24.920Z,21.4
2022-11-02T07:14:29.463Z,23.8
2022-11-02T07:15:33.503Z,22.1
2022-11-02T07:16:37.488Z,21.7
2022-11-02T07:17:41.744Z,22.5
2022-11-02T07:18:46.231Z,24
2022-11-02T07:19:50.880Z,22.3
2022-11-02T07:20:55.399Z,22.9
2022-11-02T07:22:00.017Z,23.7
2022-11-02T07:23:05.173Z,23.8
2022-11-02T07:24:09.168Z,24.4
2022-11-02T07:25:13.639Z,25.2
2022-11-02T07:26:17.965Z,25.1
2022-11-02T07:27:22.393Z,26.1
2022-11-02T07:28:27.024Z,27.1
2022-11-02T07:29:31.240Z,27.6
2022-11-02T07:30:35.619Z,27.6
2022-11-02T07:31:40.324Z,29.2
2022-11-02T07:32:44.854Z,30.9
2022-11-02T07:33:49.372Z,31.1
2022-11-02T07:34:53.878Z,30.3
2022-11-02T07:35:57.988Z,29.3
2022-11-02T07:37:02.544Z,28.5
2022-11-02T07:38:06.661Z,26.8
2022-11-02T07:39:10.681Z,28.5
2022-11-02T07:40:14.841Z,29.1
2022-11-02T07:41:19.364Z,28.2
2022-11-02T07:42:23.529Z,28.5
2022-11-02T07:43:28.040Z,29
2022-11-02T07:44:32.348Z,29.7
2022-11-02T07:45:36.803Z,27.3
2022-11-02T07:46:41.297Z,28.5
2022-11-02T07:47:45.388Z,29.6
2022-11-02T07:48:50.088Z,28.8
2022-11-02T07:49:54.584Z,28.3
2022-11-02T07:50:59.203Z,26.7
2022-11-02T07:52:03.784Z,29.3
2022-11-02T07:53:08.467Z,28.7
2022-11-02T07:54:12.480Z,28.6
2022-11-02T07:55:17.099Z,30.9
2022-11-02T07:56:21.608Z,29.6
2022-11-02T07:57:26.184Z,30
2022-11-02T07:58:30.317Z,30.1
2022-11-02T07:59:34.764Z,31.4
2022-11-02T08:00:38.995Z,33.2
2022-11-02T08:01:43.558Z,32.3
2022-11-02T08:02:47.611Z,30.8
2022-11-02T08:03:57.300Z,32.3
2022-11-02T08:05:01.796Z,32.3
2022-11-02T08:06:06.504Z,31.2
2022-11-02T08:07:11.100Z,32.1
2022-11-02T08:08:15.643Z,32.5
2022-11-02T08:09:19.633Z,35.1
2022-11-02T08:10:23.809Z,33.9
2022-11-02T08:11:28.325Z,33
2022-11-02T08:12:32.413Z,32.1
2022-11-02T08:13:36.512Z,29.2
2022-11-02T08:14:41.146Z,24.5
2022-11-02T08:15:45.637Z,26.1
2022-11-02T08:16:49.793Z,27.2
2022-11-02T08:17:53.924Z,25.5
2022-11-02T08:19:08.719Z,24.8
2022-11-02T08:20:13.156Z,26.1
2022-11-02T08:21:17.336Z,26.2
2022-11-02T08:22:21.987Z,24.6
2022-11-02T08:23:26.448Z,25.6
2022-11-02T08:24:30.515Z,24.8
2022-11-02T08:25:35.136Z,23
2022-11-02T08:26:39.848Z,22.6
2022-11-02T08:27:43.811Z,24
2022-11-02T08:28:48.428Z,24.4
2022-11-02T08:29:53.033Z,22.8
2022-11-02T08:30:57.628Z,23.2
2022-11-02T08:32:02.208Z,23.1
2022-11-02T08:33:06.792Z,22.5
2022-11-02T08:34:11.292Z,23.3
2022-11-02T08:35:15.442Z,21.3
2022-11-02T08:36:19.564Z,22.5
2022-11-02T08:37:24.080Z,23
2022-11-02T08:38:28.216Z,23.1
2022-11-02T08:39:32.936Z,23.9
2022-11-02T08:40:37.231Z,23.1
2022-11-02T08:41:41.399Z,22.7
2022-11-02T08:42:45.483Z,23.3
2022-11-02T08:43:50.396Z,23.4
2022-11-02T08:44:54.689Z,22.3
2022-11-02T08:46:16.281Z,23.6
2022-11-02T08:47:05.453Z,23
2022-11-02T08:48:08.149Z,23.8
2022-11-02T08:49:12.609Z,22.7
2022-11-02T08:50:17.093Z,24.5
2022-11-02T08:51:21.936Z,25.3
2022-11-02T08:52:26.248Z,24.7
2022-11-02T08:53:30.315Z,23.7
2022-11-02T08:54:34.669Z,22.8
2022-11-02T08:55:39.059Z,23.3
2022-11-02T08:56:43.516Z,21.4
2022-11-02T08:57:47.682Z,21.1
2022-11-02T08:58:52.192Z,22.6
2022-11-02T08:59:56.844Z,24.1
2022-11-02T09:01:01.668Z,22
2022-11-02T09:02:06.098Z,22.6
2022-11-02T09:03:10.612Z,21.8
2022-11-02T09:04:15.216Z,22.6
2022-11-02T09:05:19.676Z,22.7
2022-11-02T09:06:23.951Z,20
2022-11-02T09:07:28.459Z,21
2022-11-02T09:08:32.912Z,22.3
2022-11-02T09:09:37.492Z,21.9
2022-11-02T09:10:41.571Z,22.9
2022-11-02T09:11:48.693Z,23
2022-11-02T09:12:53.259Z,23.1
2022-11-02T09:13:57.414Z,23.1
2022-11-02T09:15:01.400Z,23.6
2022-11-02T09:16:05.973Z,23.1
2022-11-02T09:17:10.088Z,23.7
2022-11-02T09:18:14.605Z,22.8
2022-11-02T09:19:18.732Z,23.3
2022-11-02T09:20:23.432Z,23.2
2022-11-02T09:21:27.874Z,22.9
2022-11-02T09:22:32.469Z,23.9
2022-11-02T09:23:36.564Z,23.4
2022-11-02T09:24:41.126Z,22.1
2022-11-02T09:25:45.701Z,20.1
2022-11-02T09:26:49.702Z,23.2
2022-11-02T09:27:55.510Z,21.4
2022-11-02T09:28:58.387Z,21.7
2022-11-02T09:30:02.764Z,21.5
2022-11-02T09:31:08.880Z,20.8
2022-11-02T09:32:11.677Z,18.9
2022-11-02T09:33:16.175Z,18.7
2022-11-02T09:34:20.354Z,18.1
2022-11-02T09:35:24.815Z,15.9
2022-11-02T09:36:28.900Z,14.9
2022-11-02T09:37:32.993Z,15.7
2022-11-02T09:38:37.108Z,15.2
2022-11-02T09:39:41.672Z,14.4
2022-11-02T09:40:46.204Z,14.6
2022-11-02T09:41:53.395Z,15.5
2022-11-02T09:42:57.457Z,13.5
2022-11-02T09:44:07.158Z,13.3
2022-11-02T09:45:16.924Z,13.7
2022-11-02T09:46:21.400Z,13.6
2022-11-02T09:48:03.302Z,14
2022-11-02T09:48:30.388Z,13
2022-11-02T09:49:37.323Z,13.8
2022-11-02T09:50:41.846Z,13.8
2022-11-02T09:51:49.152Z,13.8
2022-11-02T09:52:53.477Z,13.8
2022-11-02T09:53:57.553Z,13.8
2022-11-02T09:55:12.276Z,13.8
2022-11-02T09:56:16.841Z,13.8
2022-11-02T09:57:21.554Z,13.1
2022-11-02T09:58:28.532Z,12.7
2022-11-02T09:59:38.774Z,11.9
2022-11-02T10:00:43.380Z,13.6
2022-11-02T10:01:47.948Z,13.2
2022-11-02T10:02:52.649Z,12.8
2022-11-02T10:04:04.712Z,13.2
2022-11-02T10:05:19.507Z,12.5
2022-11-02T10:06:34.325Z,12.8
2022-11-02T10:07:38.880Z,13.7
2022-11-02T10:08:53.673Z,13
2022-11-02T10:10:05.744Z,13.6
2022-11-02T10:11:18.403Z,14.4
2022-11-02T10:12:33.179Z,14.9
2022-11-02T10:13:37.768Z,14.7
2022-11-02T10:14:44.932Z,14.6
2022-11-02T10:15:54.392Z,13.9
2022-11-02T10:17:01.640Z,14.6
2022-11-02T10:18:11.355Z,14.1
2022-11-02T10:19:26.388Z,13.9
2022-11-02T10:20:30.640Z,13
2022-11-02T10:21:40.212Z,13.7
2022-11-02T10:22:45.252Z,13.9
2022-11-02T10:23:49.951Z,13.1
2022-11-02T10:24:54.452Z,12.8
2022-11-02T10:25:58.801Z,12.3
2022-11-02T10:27:03.203Z,13.1
2022-11-02T10:28:07.371Z,12.9
2022-11-02T10:29:16.978Z,13.2
2022-11-02T10:30:26.660Z,13.1
2022-11-02T10:31:30.789Z,14
2022-11-02T10:32:35.364Z,13.9
2022-11-02T10:33:39.937Z,13.4
2022-11-02T10:34:47.646Z,13.7
2022-11-02T10:36:12.358Z,13.3
2022-11-02T10:37:03.375Z,13.4
2022-11-02T10:38:18.227Z,12.8
2022-11-02T10:39:27.875Z,11.6
2022-11-02T10:40:37.443Z,12.3
2022-11-02T10:41:47.061Z,12.4
2022-11-02T10:42:56.275Z,13
2022-11-02T10:44:08.492Z,12.2
2022-11-02T10:45:12.920Z,12.1
2022-11-02T10:46:20.154Z,12.1
2022-11-02T10:47:29.897Z,10.7
2022-11-02T10:48:34.463Z,11.4
2022-11-02T10:49:44.031Z,11.5
2022-11-02T10:50:53.735Z,11.4
2022-11-02T10:52:06.008Z,11.6
2022-11-02T10:53:39.289Z,11.3
2022-11-02T10:54:22.760Z,11.3
2022-11-02T10:55:24.374Z,10.7
2022-11-02T10:56:37.076Z,11.2
2022-11-02T10:57:44.218Z,10.5
2022-11-02T10:58:48.731Z,10.2
2022-11-02T10:59:56.877Z,10.3
2022-11-02T11:01:10.916Z,10.5
2022-11-02T11:02:15.242Z,11
2022-11-02T11:03:19.808Z,10.9
2022-11-02T11:04:24.348Z,10.1
2022-11-02T11:05:28.457Z,10.4
2022-11-02T11:06:32.947Z,9.6
2022-11-02T11:07:37.209Z,10.5
2022-11-02T11:08:42.179Z,9.6
2022-11-02T11:09:47.276Z,10.8
2022-11-02T11:10:54.283Z,11.6
2022-11-02T11:12:09.044Z,10.1
2022-11-02T11:16:32.528Z,9.6
2022-11-02T11:19:44.720Z,10.4
2022-11-02T11:20:49.327Z,9.2
2022-11-02T11:21:53.885Z,9.1
2022-11-02T11:22:58.351Z,9.3
2022-11-02T11:24:08.203Z,10.4
2022-11-02T11:25:12.660Z,10.1
2022-11-02T11:26:19.709Z,10.6
2022-11-02T11:27:26.899Z,9.6
2022-11-02T11:28:31.580Z,10.2
2022-11-02T11:29:39.539Z,12.7
2022-11-02T11:31:05.338Z,12.1
2022-11-02T11:32:02.547Z,11.4
2022-11-02T11:33:07.044Z,10.3
2022-11-02T11:34:16.572Z,10.2
2022-11-02T11:35:24.032Z,10.5
2022-11-02T11:36:36.675Z,10.4
2022-11-02T11:37:41.764Z,10.3
2022-11-02T11:38:51.407Z,11.2
2022-11-02T11:39:56.035Z,10.4
2022-11-02T11:41:08.700Z,11.3
2022-11-02T11:42:13.226Z,13.1
2022-11-02T11:43:17.311Z,11.7
2022-11-02T11:44:24.984Z,13.4
2022-11-02T11:45:29.131Z,12.8
2022-11-02T11:46:33.683Z,12.8
2022-11-02T11:47:40.771Z,12.6
2022-11-02T11:48:45.316Z,11.4
2022-11-02T11:50:20.049Z,10.8
2022-11-02T11:50:53.435Z,10.4
2022-11-02T11:51:58.043Z,11.2
2022-11-02T11:53:02.733Z,10.8
2022-11-02T11:54:17.250Z,10.3
2022-11-02T11:55:26.463Z,10.6
2022-11-02T11:56:30.715Z,9.3
2022-11-02T11:57:35.082Z,9.4
2022-11-02T11:58:39.374Z,9.2
2022-11-02T11:59:43.811Z,9.1
2022-11-02T12:00:48.312Z,9
2022-11-02T12:02:04.096Z,8.6
2022-11-02T12:03:08.288Z,8.6
2022-11-02T12:04:11.811Z,9.4
2022-11-02T12:05:15.933Z,9.3
2022-11-02T12:06:20.362Z,8.5
2022-11-02T12:07:35.162Z,9.4
2022-11-02T12:08:47.359Z,8.4
2022-11-02T12:09:59.509Z,8.4
2022-11-02T12:11:16.347Z,8.4
2022-11-02T12:12:21.536Z,7.7
2022-11-02T12:13:36.240Z,8.1
2022-11-02T12:14:48.415Z,8.4
2022-11-02T12:16:03.114Z,8.4
2022-11-02T12:17:15.340Z,7.9
2022-11-02T12:18:27.658Z,8.5
2022-11-02T12:19:37.336Z,7.4
2022-11-02T12:20:46.896Z,7.3
2022-11-02T12:22:01.689Z,7.6
2022-11-02T12:23:11.442Z,7.4
2022-11-02T12:24:26.134Z,7.7
2022-11-02T12:25:40.892Z,6.9
2022-11-02T12:26:55.660Z,7.6
2022-11-02T12:28:05.591Z,7.4
2022-11-02T12:29:18.011Z,7.4
2022-11-02T12:30:29.919Z,6.4
2022-11-02T12:31:44.447Z,6.5
2022-11-02T12:32:54.051Z,6.4
2022-11-02T12:34:06.330Z,6.6
2022-11-02T12:35:34.043Z,6.3
2022-11-02T12:36:30.915Z,7.1
2022-11-02T12:37:45.502Z,6.9
2022-11-02T12:38:59.759Z,6.8
2022-11-02T12:40:08.884Z,6.7
2022-11-02T12:41:19.110Z,6.3
2022-11-02T12:42:26.239Z,6.3
2022-11-02T12:43:30.322Z,6.2
2022-11-02T12:44:40.394Z,6.5
2022-11-02T12:45:52.266Z,7.1
2022-11-02T12:47:05.032Z,7.7
2022-11-02T12:48:14.604Z,7.5
2022-11-02T12:49:21.608Z,7.9
2022-11-02T12:50:33.935Z,7.3
2022-11-02T12:51:48.683Z,7.1
2022-11-02T12:52:58.469Z,6.5
2022-11-02T12:54:07.963Z,7.6
2022-11-02T12:55:16.817Z,6.8
2022-11-02T12:56:16.651Z,7
2022-11-02T12:57:23.810Z,7.5
2022-11-02T12:58:27.962Z,7.9
2022-11-02T12:59:34.999Z,7.6
2022-11-02T13:00:39.480Z,7
2022-11-02T13:01:43.881Z,7.8
2022-11-02T13:02:48.175Z,8.2
2022-11-02T13:04:02.983Z,8.9
2022-11-02T13:05:15.127Z,8.5
2022-11-02T13:06:19.443Z,8.3
2022-11-02T13:07:27.005Z,9.6
2022-11-02T13:08:39.038Z,10.2
2022-11-02T13:09:51.429Z,9
2022-11-02T13:11:00.954Z,9.6
2022-11-02T13:12:05.125Z,8.5
2022-11-02T13:13:12.632Z,8.8
2022-11-02T13:14:16.787Z,8.2
2022-11-02T13:15:21.396Z,8.7
2022-11-02T13:16:25.912Z,9
2022-11-02T13:17:38.766Z,8.6
2022-11-02T13:18:45.634Z,9
2022-11-02T13:19:52.806Z,8.7
2022-11-02T13:21:00.007Z,8.6
2022-11-02T13:22:04.681Z,8.5
2022-11-02T13:23:09.201Z,9
2022-11-02T13:24:16.198Z,9
2022-11-02T13:25:20.202Z,9.5
2022-11-02T13:26:29.405Z,8.2
2022-11-02T13:27:36.230Z,8.8
2022-11-02T13:28:37.966Z,8.8
2022-11-02T13:29:45.202Z,8.8
2022-11-02T13:30:49.331Z,9.1
2022-11-02T13:31:53.626Z,8.6
2022-11-02T13:33:00.746Z,8
2022-11-02T13:34:05.006Z,8.4
2022-11-02T13:35:09.098Z,8
2022-11-02T13:36:13.639Z,7.8
2022-11-02T13:37:17.832Z,6.8
2022-11-02T13:38:32.632Z,8.6
2022-11-02T13:39:42.767Z,7.1
2022-11-02T13:40:46.719Z,7.1
2022-11-02T13:41:55.957Z,7.4
2022-11-02T13:43:05.910Z,8.2
2022-11-02T13:44:17.874Z,7.8
2022-11-02T13:46:44.743Z,7.5
2022-11-02T13:47:51.949Z,7.7
2022-11-02T13:48:59.290Z,7.2
2022-11-02T13:50:08.859Z,6.9
2022-11-02T13:51:13.590Z,7.5
2022-11-02T13:52:20.951Z,7.4
2022-11-02T13:53:35.650Z,7.4
2022-11-02T13:54:39.810Z,7
2022-11-02T13:55:46.911Z,7.3
2022-11-02T13:56:51.790Z,8
2022-11-02T13:57:56.083Z,7.5
2022-11-02T13:59:00.682Z,7.1
2022-11-02T14:00:07.807Z,8.2
2022-11-02T14:01:22.605Z,8.6
2022-11-02T14:02:27.245Z,7.6
2022-11-02T14:03:31.591Z,7.9
2022-11-02T14:04:46.442Z,7.2
2022-11-02T14:05:51.307Z,7.2
2022-11-02T14:06:58.702Z,6.2
2022-11-02T14:08:03.694Z,7.3
2022-11-02T14:09:07.947Z,6.6
2022-11-02T14:10:12.722Z,6.8
2022-11-02T14:11:17.089Z,6.7
2022-11-02T14:12:21.646Z,7.1
2022-11-02T14:13:26.263Z,7
2022-11-02T14:14:41.068Z,7.3
2022-11-02T14:15:45.614Z,7.6
2022-11-02T14:16:50.447Z,7.9
2022-11-02T14:17:54.734Z,7.5
2022-11-02T14:19:04.600Z,8.1
2022-11-02T14:20:16.558Z,8.3
2022-11-02T14:21:31.519Z,8
2022-11-02T14:22:41.131Z,8
2022-11-02T14:23:45.621Z,7.4
2022-11-02T14:24:49.694Z,7.4
2022-11-02T14:25:54.333Z,8.1
2022-11-02T14:27:01.459Z,7.4
2022-11-02T14:28:11.410Z,7.6
2022-11-02T14:29:23.374Z,7.9
2022-11-02T14:30:38.051Z,8.1
2022-11-02T14:31:42.640Z,7.7
2022-11-02T14:32:46.710Z,7
2022-11-02T14:33:53.894Z,7.5
2022-11-02T14:35:04.321Z,7.4
2022-11-02T14:36:18.670Z,8.3
2022-11-02T14:37:28.358Z,8.3
2022-11-02T14:38:43.516Z,7.9
2022-11-02T14:39:56.038Z,8
2022-11-02T14:41:05.570Z,8.3
2022-11-02T14:42:15.774Z,7.9
2022-11-02T14:43:28.218Z,7.8
2022-11-02T14:44:41.127Z,7.9
2022-11-02T14:45:55.842Z,8.6
2022-11-02T14:47:08.016Z,8.3
2022-11-02T14:48:12.611Z,9.1
2022-11-02T14:49:17.291Z,9.1
2022-11-02T14:50:24.234Z,9.1
2022-11-02T14:51:26.214Z,9.5
2022-11-02T14:52:30.437Z,9.4
2022-11-02T14:53:35.022Z,9
2022-11-02T14:54:39.908Z,10.2
2022-11-02T14:55:53.215Z,9.3
2022-11-02T14:56:57.434Z,9.3
2022-11-02T14:58:10.774Z,9.1
2022-11-02T14:59:16.919Z,11.3
2022-11-02T15:00:24.641Z,12.9
2022-11-02T15:01:34.164Z,13.7
2022-11-02T15:02:40.373Z,16.4
2022-11-02T15:03:43.214Z,18.4